sensor_id;sensor_type;location;lat;lon;timestamp;temperature;humidity
75994;DHT22;64680;53.800;9.988;2023-09-08T00:01:02;16.50;80.60
75994;DHT22;64680;53.800;9.988;2023-09-08T00:03:27;16.50;80.00
75994;DHT22;64680;53.800;9.988;2023-09-08T00:05:53;16.50;79.70
75994;DHT22;64680;53.800;9.988;2023-09-08T00:08:18;16.40;78.60
75994;DHT22;64680;53.800;9.988;2023-09-08T00:10:44;16.40;78.10
75994;DHT22;64680;53.800;9.988;2023-09-08T00:13:10;16.40;78.40
75994;DHT22;64680;53.800;9.988;2023-09-08T00:15:36;16.40;76.90
75994;DHT22;64680;53.800;9.988;2023-09-08T00:18:02;16.30;76.50
75994;DHT22;64680;53.800;9.988;2023-09-08T00:20:28;16.30;75.50
75994;DHT22;64680;53.800;9.988;2023-09-08T00:22:54;16.30;75.20
75994;DHT22;64680;53.800;9.988;2023-09-08T00:25:19;16.30;74.60
75994;DHT22;64680;53.800;9.988;2023-09-08T00:27:45;16.30;73.30
75994;DHT22;64680;53.800;9.988;2023-09-08T00:30:11;16.40;72.50
75994;DHT22;64680;53.800;9.988;2023-09-08T00:32:37;16.30;73.00
75994;DHT22;64680;53.800;9.988;2023-09-08T00:35:05;16.30;73.20
75994;DHT22;64680;53.800;9.988;2023-09-08T00:37:31;16.30;73.30
75994;DHT22;64680;53.800;9.988;2023-09-08T00:39:56;16.30;72.20
75994;DHT22;64680;53.800;9.988;2023-09-08T00:42:22;16.30;72.20
75994;DHT22;64680;53.800;9.988;2023-09-08T00:44:47;16.20;72.00
75994;DHT22;64680;53.800;9.988;2023-09-08T00:47:13;16.20;71.50
75994;DHT22;64680;53.800;9.988;2023-09-08T00:49:39;16.20;71.50
75994;DHT22;64680;53.800;9.988;2023-09-08T00:52:05;16.10;71.70
75994;DHT22;64680;53.800;9.988;2023-09-08T00:54:31;16.10;70.90
75994;DHT22;64680;53.800;9.988;2023-09-08T00:56:57;16.10;70.80
75994;DHT22;64680;53.800;9.988;2023-09-08T00:59:23;16.10;69.70
75994;DHT22;64680;53.800;9.988;2023-09-08T01:01:50;16.00;70.20
75994;DHT22;64680;53.800;9.988;2023-09-08T01:04:16;16.00;69.80
75994;DHT22;64680;53.800;9.988;2023-09-08T01:06:42;16.00;69.30
75994;DHT22;64680;53.800;9.988;2023-09-08T01:09:09;16.00;67.00
75994;DHT22;64680;53.800;9.988;2023-09-08T01:11:35;16.00;67.20
75994;DHT22;64680;53.800;9.988;2023-09-08T01:14:01;16.00;67.00
75994;DHT22;64680;53.800;9.988;2023-09-08T01:16:27;16.10;65.20
75994;DHT22;64680;53.800;9.988;2023-09-08T01:18:53;16.10;64.50
75994;DHT22;64680;53.800;9.988;2023-09-08T01:22:21;16.00;64.70
75994;DHT22;64680;53.800;9.988;2023-09-08T01:27:32;16.00;62.20
75994;DHT22;64680;53.800;9.988;2023-09-08T01:29:59;16.00;61.30
75994;DHT22;64680;53.800;9.988;2023-09-08T01:32:26;16.00;61.20
75994;DHT22;64680;53.800;9.988;2023-09-08T01:34:52;16.00;60.60
75994;DHT22;64680;53.800;9.988;2023-09-08T01:37:17;16.00;60.60
75994;DHT22;64680;53.800;9.988;2023-09-08T01:39:46;16.00;59.60
75994;DHT22;64680;53.800;9.988;2023-09-08T01:42:11;16.00;59.30
75994;DHT22;64680;53.800;9.988;2023-09-08T01:44:37;16.00;57.40
75994;DHT22;64680;53.800;9.988;2023-09-08T01:47:03;16.10;57.70
75994;DHT22;64680;53.800;9.988;2023-09-08T01:49:28;16.10;56.30
75994;DHT22;64680;53.800;9.988;2023-09-08T01:51:54;16.10;56.20
75994;DHT22;64680;53.800;9.988;2023-09-08T01:54:21;16.10;56.10
75994;DHT22;64680;53.800;9.988;2023-09-08T01:59:22;16.00;56.40
75994;DHT22;64680;53.800;9.988;2023-09-08T02:01:48;16.00;55.70
75994;DHT22;64680;53.800;9.988;2023-09-08T02:04:13;16.00;56.30
75994;DHT22;64680;53.800;9.988;2023-09-08T02:06:39;15.90;56.80
75994;DHT22;64680;53.800;9.988;2023-09-08T02:09:04;15.90;57.50
75994;DHT22;64680;53.800;9.988;2023-09-08T02:11:30;15.80;56.00
75994;DHT22;64680;53.800;9.988;2023-09-08T02:13:55;15.90;57.60
75994;DHT22;64680;53.800;9.988;2023-09-08T02:16:24;15.80;58.30
75994;DHT22;64680;53.800;9.988;2023-09-08T02:18:50;15.70;59.10
75994;DHT22;64680;53.800;9.988;2023-09-08T02:21:16;15.70;59.50
75994;DHT22;64680;53.800;9.988;2023-09-08T02:23:41;15.60;60.70
75994;DHT22;64680;53.800;9.988;2023-09-08T02:26:10;15.60;61.30
75994;DHT22;64680;53.800;9.988;2023-09-08T02:28:36;15.50;62.80
75994;DHT22;64680;53.800;9.988;2023-09-08T02:31:01;15.40;63.20
75994;DHT22;64680;53.800;9.988;2023-09-08T02:33:27;15.40;64.10
75994;DHT22;64680;53.800;9.988;2023-09-08T02:35:54;15.30;65.10
75994;DHT22;64680;53.800;9.988;2023-09-08T02:38:19;15.30;65.70
75994;DHT22;64680;53.800;9.988;2023-09-08T02:40:45;15.30;65.30
75994;DHT22;64680;53.800;9.988;2023-09-08T02:43:10;15.30;66.20
75994;DHT22;64680;53.800;9.988;2023-09-08T02:45:36;15.20;67.40
75994;DHT22;64680;53.800;9.988;2023-09-08T02:48:01;15.10;68.60
75994;DHT22;64680;53.800;9.988;2023-09-08T02:50:27;15.10;70.50
75994;DHT22;64680;53.800;9.988;2023-09-08T02:52:53;15.10;70.20
75994;DHT22;64680;53.800;9.988;2023-09-08T02:55:19;15.10;71.50
75994;DHT22;64680;53.800;9.988;2023-09-08T02:57:45;15.10;71.00
75994;DHT22;64680;53.800;9.988;2023-09-08T03:00:11;15.00;72.10
75994;DHT22;64680;53.800;9.988;2023-09-08T03:02:37;15.00;71.20
75994;DHT22;64680;53.800;9.988;2023-09-08T03:05:02;15.00;72.60
75994;DHT22;64680;53.800;9.988;2023-09-08T03:07:28;15.00;72.80
75994;DHT22;64680;53.800;9.988;2023-09-08T03:09:53;15.00;73.20
75994;DHT22;64680;53.800;9.988;2023-09-08T03:12:19;15.00;71.80
75994;DHT22;64680;53.800;9.988;2023-09-08T03:14:44;14.90;71.60
75994;DHT22;64680;53.800;9.988;2023-09-08T03:17:11;14.90;72.30
75994;DHT22;64680;53.800;9.988;2023-09-08T03:19:38;14.90;72.70
75994;DHT22;64680;53.800;9.988;2023-09-08T03:22:03;14.80;72.80
75994;DHT22;64680;53.800;9.988;2023-09-08T03:24:29;14.70;73.30
75994;DHT22;64680;53.800;9.988;2023-09-08T03:26:55;14.70;74.80
75994;DHT22;64680;53.800;9.988;2023-09-08T03:29:20;14.70;75.10
75994;DHT22;64680;53.800;9.988;2023-09-08T03:31:46;14.60;76.00
75994;DHT22;64680;53.800;9.988;2023-09-08T03:34:11;14.60;75.60
75994;DHT22;64680;53.800;9.988;2023-09-08T03:36:38;14.60;76.20
75994;DHT22;64680;53.800;9.988;2023-09-08T03:39:03;14.60;76.30
75994;DHT22;64680;53.800;9.988;2023-09-08T03:41:29;14.60;75.70
75994;DHT22;64680;53.800;9.988;2023-09-08T03:43:55;14.60;75.40
75994;DHT22;64680;53.800;9.988;2023-09-08T03:46:20;14.60;74.10
75994;DHT22;64680;53.800;9.988;2023-09-08T03:48:46;14.50;74.40
75994;DHT22;64680;53.800;9.988;2023-09-08T03:51:12;14.50;75.30
75994;DHT22;64680;53.800;9.988;2023-09-08T03:53:37;14.40;75.90
75994;DHT22;64680;53.800;9.988;2023-09-08T03:56:03;14.40;76.70
75994;DHT22;64680;53.800;9.988;2023-09-08T03:58:28;14.40;76.70
75994;DHT22;64680;53.800;9.988;2023-09-08T04:00:54;14.40;75.30
75994;DHT22;64680;53.800;9.988;2023-09-08T04:03:20;14.40;75.80
75994;DHT22;64680;53.800;9.988;2023-09-08T04:05:46;14.40;76.90
75994;DHT22;64680;53.800;9.988;2023-09-08T04:08:11;14.40;77.20
75994;DHT22;64680;53.800;9.988;2023-09-08T04:10:37;14.30;77.60
75994;DHT22;64680;53.800;9.988;2023-09-08T04:13:03;14.40;77.40
75994;DHT22;64680;53.800;9.988;2023-09-08T04:15:29;14.40;77.80
75994;DHT22;64680;53.800;9.988;2023-09-08T04:17:54;14.40;77.80
75994;DHT22;64680;53.800;9.988;2023-09-08T04:20:21;14.40;79.10
75994;DHT22;64680;53.800;9.988;2023-09-08T04:22:46;14.40;79.40
75994;DHT22;64680;53.800;9.988;2023-09-08T04:25:13;14.40;80.20
75994;DHT22;64680;53.800;9.988;2023-09-08T04:27:38;14.40;80.10
75994;DHT22;64680;53.800;9.988;2023-09-08T04:30:05;14.40;81.00
75994;DHT22;64680;53.800;9.988;2023-09-08T04:32:31;14.40;82.00
75994;DHT22;64680;53.800;9.988;2023-09-08T04:34:57;14.40;81.70
75994;DHT22;64680;53.800;9.988;2023-09-08T04:37:23;14.40;82.00
75994;DHT22;64680;53.800;9.988;2023-09-08T04:39:48;14.50;81.70
75994;DHT22;64680;53.800;9.988;2023-09-08T04:42:14;14.50;81.20
75994;DHT22;64680;53.800;9.988;2023-09-08T04:44:39;14.50;80.60
75994;DHT22;64680;53.800;9.988;2023-09-08T04:47:14;14.60;78.20
75994;DHT22;64680;53.800;9.988;2023-09-08T04:49:40;14.70;77.90
75994;DHT22;64680;53.800;9.988;2023-09-08T04:52:06;14.70;76.80
75994;DHT22;64680;53.800;9.988;2023-09-08T04:54:31;14.80;75.50
75994;DHT22;64680;53.800;9.988;2023-09-08T04:56:57;14.90;74.60
75994;DHT22;64680;53.800;9.988;2023-09-08T04:59:23;14.90;73.30
75994;DHT22;64680;53.800;9.988;2023-09-08T05:01:49;15.00;71.10
75994;DHT22;64680;53.800;9.988;2023-09-08T05:04:17;15.10;70.20
75994;DHT22;64680;53.800;9.988;2023-09-08T05:06:42;15.10;69.60
75994;DHT22;64680;53.800;9.988;2023-09-08T05:09:08;15.20;68.90
75994;DHT22;64680;53.800;9.988;2023-09-08T05:11:33;15.10;70.20
75994;DHT22;64680;53.800;9.988;2023-09-08T05:13:59;15.10;69.70
75994;DHT22;64680;53.800;9.988;2023-09-08T05:16:25;15.20;70.80
75994;DHT22;64680;53.800;9.988;2023-09-08T05:19:05;15.10;70.70
75994;DHT22;64680;53.800;9.988;2023-09-08T05:21:34;15.20;70.10
75994;DHT22;64680;53.800;9.988;2023-09-08T05:24:00;15.40;68.30
75994;DHT22;64680;53.800;9.988;2023-09-08T05:26:25;15.60;64.20
75994;DHT22;64680;53.800;9.988;2023-09-08T05:28:51;15.70;60.70
75994;DHT22;64680;53.800;9.988;2023-09-08T05:31:16;15.80;58.30
75994;DHT22;64680;53.800;9.988;2023-09-08T05:33:42;15.90;57.90
75994;DHT22;64680;53.800;9.988;2023-09-08T05:36:08;15.90;57.20
75994;DHT22;64680;53.800;9.988;2023-09-08T05:38:33;15.90;58.20
75994;DHT22;64680;53.800;9.988;2023-09-08T05:40:59;15.80;58.40
75994;DHT22;64680;53.800;9.988;2023-09-08T05:43:25;15.80;59.60
75994;DHT22;64680;53.800;9.988;2023-09-08T05:45:51;15.80;60.30
75994;DHT22;64680;53.800;9.988;2023-09-08T05:48:16;15.80;61.40
75994;DHT22;64680;53.800;9.988;2023-09-08T05:50:42;15.90;59.30
75994;DHT22;64680;53.800;9.988;2023-09-08T05:53:08;15.90;60.50
75994;DHT22;64680;53.800;9.988;2023-09-08T05:55:34;15.90;61.60
75994;DHT22;64680;53.800;9.988;2023-09-08T05:57:59;15.90;58.80
75994;DHT22;64680;53.800;9.988;2023-09-08T06:00:25;16.00;59.40
75994;DHT22;64680;53.800;9.988;2023-09-08T06:02:51;16.00;59.20
75994;DHT22;64680;53.800;9.988;2023-09-08T06:05:17;16.10;59.10
75994;DHT22;64680;53.800;9.988;2023-09-08T06:07:42;16.10;59.20
75994;DHT22;64680;53.800;9.988;2023-09-08T06:10:09;16.20;56.80
75994;DHT22;64680;53.800;9.988;2023-09-08T06:12:34;16.30;59.80
75994;DHT22;64680;53.800;9.988;2023-09-08T06:15:04;16.50;56.60
75994;DHT22;64680;53.800;9.988;2023-09-08T06:17:29;16.70;54.70
75994;DHT22;64680;53.800;9.988;2023-09-08T06:19:55;17.10;50.60
75994;DHT22;64680;53.800;9.988;2023-09-08T06:22:22;17.40;47.00
75994;DHT22;64680;53.800;9.988;2023-09-08T06:24:47;17.70;41.20
75994;DHT22;64680;53.800;9.988;2023-09-08T06:27:14;18.00;41.50
75994;DHT22;64680;53.800;9.988;2023-09-08T06:29:40;18.30;38.00
75994;DHT22;64680;53.800;9.988;2023-09-08T06:32:09;18.50;30.60
75994;DHT22;64680;53.800;9.988;2023-09-08T06:34:35;18.70;28.20
75994;DHT22;64680;53.800;9.988;2023-09-08T06:37:01;18.90;25.60
75994;DHT22;64680;53.800;9.988;2023-09-08T06:39:28;19.00;22.50
75994;DHT22;64680;53.800;9.988;2023-09-08T06:41:56;19.20;24.50
75994;DHT22;64680;53.800;9.988;2023-09-08T06:44:22;19.30;19.50
75994;DHT22;64680;53.800;9.988;2023-09-08T06:46:47;19.40;19.70
75994;DHT22;64680;53.800;9.988;2023-09-08T06:49:13;19.60;21.40
75994;DHT22;64680;53.800;9.988;2023-09-08T06:51:39;19.90;19.10
75994;DHT22;64680;53.800;9.988;2023-09-08T06:54:05;20.00;18.70
75994;DHT22;64680;53.800;9.988;2023-09-08T06:56:30;20.10;18.50
75994;DHT22;64680;53.800;9.988;2023-09-08T06:58:56;20.20;15.80
75994;DHT22;64680;53.800;9.988;2023-09-08T07:01:24;20.30;13.90
75994;DHT22;64680;53.800;9.988;2023-09-08T07:03:50;20.50;14.50
75994;DHT22;64680;53.800;9.988;2023-09-08T07:06:16;20.50;11.90
75994;DHT22;64680;53.800;9.988;2023-09-08T07:08:42;20.60;16.40
75994;DHT22;64680;53.800;9.988;2023-09-08T07:11:07;20.80;8.70
75994;DHT22;64680;53.800;9.988;2023-09-08T07:13:34;20.80;8.90
75994;DHT22;64680;53.800;9.988;2023-09-08T07:15:59;20.80;5.40
75994;DHT22;64680;53.800;9.988;2023-09-08T07:18:25;20.80;12.30
75994;DHT22;64680;53.800;9.988;2023-09-08T07:20:50;21.00;8.10
75994;DHT22;64680;53.800;9.988;2023-09-08T07:23:17;21.20;11.00
75994;DHT22;64680;53.800;9.988;2023-09-08T07:25:47;21.40;6.20
75994;DHT22;64680;53.800;9.988;2023-09-08T07:28:14;21.50;7.70
75994;DHT22;64680;53.800;9.988;2023-09-08T07:30:39;21.60;5.20
75994;DHT22;64680;53.800;9.988;2023-09-08T07:33:08;21.60;6.80
75994;DHT22;64680;53.800;9.988;2023-09-08T07:35:37;21.70;6.00
75994;DHT22;64680;53.800;9.988;2023-09-08T07:38:03;21.90;3.00
75994;DHT22;64680;53.800;9.988;2023-09-08T07:40:29;21.90;3.40
75994;DHT22;64680;53.800;9.988;2023-09-08T07:42:55;22.10;4.60
75994;DHT22;64680;53.800;9.988;2023-09-08T07:45:23;22.20;2.10
75994;DHT22;64680;53.800;9.988;2023-09-08T07:47:49;22.30;1.00
75994;DHT22;64680;53.800;9.988;2023-09-08T07:50:26;22.40;1.00
75994;DHT22;64680;53.800;9.988;2023-09-08T07:52:53;22.60;1.60
75994;DHT22;64680;53.800;9.988;2023-09-08T07:55:19;22.70;5.00
75994;DHT22;64680;53.800;9.988;2023-09-08T07:57:48;22.80;2.30
75994;DHT22;64680;53.800;9.988;2023-09-08T08:00:14;23.00;1.00
75994;DHT22;64680;53.800;9.988;2023-09-08T08:02:46;23.00;1.00
75994;DHT22;64680;53.800;9.988;2023-09-08T08:05:12;23.00;1.00
75994;DHT22;64680;53.800;9.988;2023-09-08T08:07:39;23.20;1.00
75994;DHT22;64680;53.800;9.988;2023-09-08T08:10:05;23.40;1.00
75994;DHT22;64680;53.800;9.988;2023-09-08T08:12:31;23.50;1.00
75994;DHT22;64680;53.800;9.988;2023-09-08T08:14:57;23.60;1.00
75994;DHT22;64680;53.800;9.988;2023-09-08T08:17:24;23.50;1.00
75994;DHT22;64680;53.800;9.988;2023-09-08T08:19:51;23.60;1.00
75994;DHT22;64680;53.800;9.988;2023-09-08T08:22:21;23.60;1.00
75994;DHT22;64680;53.800;9.988;2023-09-08T08:24:46;23.90;1.00
75994;DHT22;64680;53.800;9.988;2023-09-08T08:27:12;24.00;1.00
75994;DHT22;64680;53.800;9.988;2023-09-08T08:29:39;24.10;1.00
75994;DHT22;64680;53.800;9.988;2023-09-08T08:32:05;24.10;1.00
75994;DHT22;64680;53.800;9.988;2023-09-08T08:34:31;24.20;1.00
75994;DHT22;64680;53.800;9.988;2023-09-08T08:36:57;24.40;1.00
75994;DHT22;64680;53.800;9.988;2023-09-08T08:39:22;24.80;1.00
75994;DHT22;64680;53.800;9.988;2023-09-08T08:41:48;24.70;1.00
75994;DHT22;64680;53.800;9.988;2023-09-08T08:44:15;24.80;1.00
75994;DHT22;64680;53.800;9.988;2023-09-08T08:46:43;24.90;1.00
75994;DHT22;64680;53.800;9.988;2023-09-08T08:49:10;25.10;1.00
75994;DHT22;64680;53.800;9.988;2023-09-08T08:51:37;25.30;1.00
75994;DHT22;64680;53.800;9.988;2023-09-08T08:54:04;25.50;1.00
75994;DHT22;64680;53.800;9.988;2023-09-08T08:56:31;25.50;1.00
75994;DHT22;64680;53.800;9.988;2023-09-08T08:58:58;25.70;1.00
75994;DHT22;64680;53.800;9.988;2023-09-08T09:01:24;25.70;1.00
75994;DHT22;64680;53.800;9.988;2023-09-08T09:03:51;25.70;1.00
75994;DHT22;64680;53.800;9.988;2023-09-08T09:06:18;25.60;1.00
75994;DHT22;64680;53.800;9.988;2023-09-08T09:08:44;25.60;1.00
75994;DHT22;64680;53.800;9.988;2023-09-08T09:11:11;25.60;1.00
75994;DHT22;64680;53.800;9.988;2023-09-08T09:13:37;25.80;1.00
75994;DHT22;64680;53.800;9.988;2023-09-08T09:16:03;25.90;1.00
75994;DHT22;64680;53.800;9.988;2023-09-08T09:18:30;25.90;1.00
75994;DHT22;64680;53.800;9.988;2023-09-08T09:20:59;25.90;1.00
75994;DHT22;64680;53.800;9.988;2023-09-08T09:23:33;26.00;1.00
75994;DHT22;64680;53.800;9.988;2023-09-08T09:26:01;26.20;1.00
75994;DHT22;64680;53.800;9.988;2023-09-08T09:28:29;26.30;1.00
75994;DHT22;64680;53.800;9.988;2023-09-08T09:30:58;26.30;1.00
75994;DHT22;64680;53.800;9.988;2023-09-08T09:33:25;26.40;1.00
75994;DHT22;64680;53.800;9.988;2023-09-08T09:35:54;26.60;1.00
75994;DHT22;64680;53.800;9.988;2023-09-08T09:38:20;26.50;1.00
75994;DHT22;64680;53.800;9.988;2023-09-08T09:40:47;26.80;1.00
75994;DHT22;64680;53.800;9.988;2023-09-08T09:43:14;26.90;1.00
75994;DHT22;64680;53.800;9.988;2023-09-08T09:45:41;26.90;1.00
75994;DHT22;64680;53.800;9.988;2023-09-08T09:48:08;27.00;1.00
75994;DHT22;64680;53.800;9.988;2023-09-08T09:50:36;26.90;1.00
75994;DHT22;64680;53.800;9.988;2023-09-08T09:53:14;26.80;1.00
75994;DHT22;64680;53.800;9.988;2023-09-08T09:55:42;26.90;1.00
75994;DHT22;64680;53.800;9.988;2023-09-08T09:58:11;27.00;1.00
75994;DHT22;64680;53.800;9.988;2023-09-08T10:00:38;27.20;1.00
75994;DHT22;64680;53.800;9.988;2023-09-08T10:03:06;27.30;1.00
75994;DHT22;64680;53.800;9.988;2023-09-08T10:05:32;27.20;1.00
75994;DHT22;64680;53.800;9.988;2023-09-08T10:07:59;27.40;1.00
75994;DHT22;64680;53.800;9.988;2023-09-08T10:10:26;27.60;1.00
75994;DHT22;64680;53.800;9.988;2023-09-08T10:12:54;27.60;1.00
75994;DHT22;64680;53.800;9.988;2023-09-08T10:15:21;27.70;1.00
75994;DHT22;64680;53.800;9.988;2023-09-08T10:17:54;27.70;1.00
75994;DHT22;64680;53.800;9.988;2023-09-08T10:20:23;27.80;1.00
75994;DHT22;64680;53.800;9.988;2023-09-08T10:22:53;27.90;1.00
75994;DHT22;64680;53.800;9.988;2023-09-08T10:25:21;27.70;1.00
75994;DHT22;64680;53.800;9.988;2023-09-08T10:27:50;27.80;1.00
75994;DHT22;64680;53.800;9.988;2023-09-08T10:30:16;27.80;1.00
75994;DHT22;64680;53.800;9.988;2023-09-08T10:32:43;27.90;1.00
75994;DHT22;64680;53.800;9.988;2023-09-08T10:35:09;28.00;1.00
75994;DHT22;64680;53.800;9.988;2023-09-08T10:37:38;28.20;1.00
75994;DHT22;64680;53.800;9.988;2023-09-08T10:40:24;28.00;1.00
75994;DHT22;64680;53.800;9.988;2023-09-08T10:43:09;27.80;1.00
75994;DHT22;64680;53.800;9.988;2023-09-08T10:45:35;28.00;1.00
75994;DHT22;64680;53.800;9.988;2023-09-08T10:48:01;28.10;1.00
75994;DHT22;64680;53.800;9.988;2023-09-08T10:50:33;28.10;1.00
75994;DHT22;64680;53.800;9.988;2023-09-08T10:53:15;28.10;1.00
75994;DHT22;64680;53.800;9.988;2023-09-08T10:55:49;28.20;1.00
75994;DHT22;64680;53.800;9.988;2023-09-08T10:58:28;28.30;1.00
75994;DHT22;64680;53.800;9.988;2023-09-08T11:00:59;28.30;1.00
75994;DHT22;64680;53.800;9.988;2023-09-08T11:03:47;28.30;1.00
75994;DHT22;64680;53.800;9.988;2023-09-08T11:06:18;28.40;1.00
75994;DHT22;64680;53.800;9.988;2023-09-08T11:08:48;28.60;1.00
75994;DHT22;64680;53.800;9.988;2023-09-08T11:11:16;28.60;1.00
75994;DHT22;64680;53.800;9.988;2023-09-08T11:13:41;28.70;1.00
75994;DHT22;64680;53.800;9.988;2023-09-08T11:16:11;28.60;1.00
75994;DHT22;64680;53.800;9.988;2023-09-08T11:18:36;28.60;1.00
75994;DHT22;64680;53.800;9.988;2023-09-08T11:21:04;28.50;1.00
75994;DHT22;64680;53.800;9.988;2023-09-08T11:23:32;28.70;1.00
75994;DHT22;64680;53.800;9.988;2023-09-08T11:25:59;28.90;1.00
75994;DHT22;64680;53.800;9.988;2023-09-08T11:28:26;28.80;1.00
75994;DHT22;64680;53.800;9.988;2023-09-08T11:30:54;28.90;1.00
75994;DHT22;64680;53.800;9.988;2023-09-08T11:33:21;28.90;1.00
75994;DHT22;64680;53.800;9.988;2023-09-08T11:35:53;28.80;1.00
75994;DHT22;64680;53.800;9.988;2023-09-08T11:38:25;28.80;1.00
75994;DHT22;64680;53.800;9.988;2023-09-08T11:40:52;28.90;1.00
75994;DHT22;64680;53.800;9.988;2023-09-08T11:43:19;28.70;1.00
75994;DHT22;64680;53.800;9.988;2023-09-08T11:45:44;28.80;1.00
75994;DHT22;64680;53.800;9.988;2023-09-08T11:48:10;28.90;1.00
75994;DHT22;64680;53.800;9.988;2023-09-08T11:50:35;29.10;1.00
75994;DHT22;64680;53.800;9.988;2023-09-08T11:53:01;29.20;1.00
75994;DHT22;64680;53.800;9.988;2023-09-08T11:55:28;29.20;1.00
75994;DHT22;64680;53.800;9.988;2023-09-08T11:57:55;29.00;1.00
75994;DHT22;64680;53.800;9.988;2023-09-08T12:00:23;28.90;1.00
75994;DHT22;64680;53.800;9.988;2023-09-08T12:02:49;29.00;1.00
75994;DHT22;64680;53.800;9.988;2023-09-08T12:05:27;29.10;1.00
75994;DHT22;64680;53.800;9.988;2023-09-08T12:07:57;29.20;1.00
75994;DHT22;64680;53.800;9.988;2023-09-08T12:10:25;29.20;1.00
75994;DHT22;64680;53.800;9.988;2023-09-08T12:12:52;29.20;1.00
75994;DHT22;64680;53.800;9.988;2023-09-08T12:18:04;29.30;1.00
75994;DHT22;64680;53.800;9.988;2023-09-08T12:20:31;29.20;1.00
75994;DHT22;64680;53.800;9.988;2023-09-08T12:23:02;29.30;1.00
75994;DHT22;64680;53.800;9.988;2023-09-08T12:25:45;29.10;1.00
75994;DHT22;64680;53.800;9.988;2023-09-08T12:28:10;29.00;1.00
75994;DHT22;64680;53.800;9.988;2023-09-08T12:30:36;29.20;1.00
75994;DHT22;64680;53.800;9.988;2023-09-08T12:33:02;29.10;1.00
75994;DHT22;64680;53.800;9.988;2023-09-08T12:35:31;29.10;1.00
75994;DHT22;64680;53.800;9.988;2023-09-08T12:37:57;29.10;1.00
75994;DHT22;64680;53.800;9.988;2023-09-08T12:40:25;29.10;1.00
75994;DHT22;64680;53.800;9.988;2023-09-08T12:42:50;29.10;1.00
75994;DHT22;64680;53.800;9.988;2023-09-08T12:45:17;29.10;1.00
75994;DHT22;64680;53.800;9.988;2023-09-08T12:47:43;29.10;1.00
75994;DHT22;64680;53.800;9.988;2023-09-08T12:50:09;29.10;1.00
75994;DHT22;64680;53.800;9.988;2023-09-08T12:52:35;29.20;1.00
75994;DHT22;64680;53.800;9.988;2023-09-08T12:55:01;29.20;1.00
75994;DHT22;64680;53.800;9.988;2023-09-08T12:57:26;29.20;1.00
75994;DHT22;64680;53.800;9.988;2023-09-08T12:59:52;28.90;1.00
75994;DHT22;64680;53.800;9.988;2023-09-08T13:02:17;28.80;1.00
75994;DHT22;64680;53.800;9.988;2023-09-08T13:04:43;28.80;1.00
75994;DHT22;64680;53.800;9.988;2023-09-08T13:07:15;28.90;1.00
75994;DHT22;64680;53.800;9.988;2023-09-08T13:09:41;28.70;1.00
75994;DHT22;64680;53.800;9.988;2023-09-08T13:12:06;28.80;1.00
75994;DHT22;64680;53.800;9.988;2023-09-08T13:14:34;28.80;1.00
75994;DHT22;64680;53.800;9.988;2023-09-08T13:17:00;28.70;1.00
75994;DHT22;64680;53.800;9.988;2023-09-08T13:19:26;28.70;1.00
75994;DHT22;64680;53.800;9.988;2023-09-08T13:21:51;28.60;1.00
75994;DHT22;64680;53.800;9.988;2023-09-08T13:24:17;28.60;1.00
75994;DHT22;64680;53.800;9.988;2023-09-08T13:26:42;28.60;1.00
75994;DHT22;64680;53.800;9.988;2023-09-08T13:29:08;28.70;1.00
75994;DHT22;64680;53.800;9.988;2023-09-08T13:31:34;28.60;1.00
75994;DHT22;64680;53.800;9.988;2023-09-08T13:33:59;28.60;1.00
75994;DHT22;64680;53.800;9.988;2023-09-08T13:36:25;28.70;1.00
75994;DHT22;64680;53.800;9.988;2023-09-08T13:38:50;28.70;1.00
75994;DHT22;64680;53.800;9.988;2023-09-08T13:41:16;28.70;1.00
75994;DHT22;64680;53.800;9.988;2023-09-08T13:43:42;28.60;1.00
75994;DHT22;64680;53.800;9.988;2023-09-08T13:46:07;28.60;1.00
75994;DHT22;64680;53.800;9.988;2023-09-08T13:48:33;28.50;1.00
75994;DHT22;64680;53.800;9.988;2023-09-08T13:51:02;28.50;1.00
75994;DHT22;64680;53.800;9.988;2023-09-08T13:53:29;28.50;1.00
75994;DHT22;64680;53.800;9.988;2023-09-08T13:55:56;28.50;1.00
75994;DHT22;64680;53.800;9.988;2023-09-08T13:58:22;28.40;1.00
75994;DHT22;64680;53.800;9.988;2023-09-08T14:00:48;28.50;1.00
75994;DHT22;64680;53.800;9.988;2023-09-08T14:03:15;28.50;1.00
75994;DHT22;64680;53.800;9.988;2023-09-08T14:05:44;28.40;1.00
75994;DHT22;64680;53.800;9.988;2023-09-08T14:08:10;28.40;1.00
75994;DHT22;64680;53.800;9.988;2023-09-08T14:10:35;28.40;1.00
75994;DHT22;64680;53.800;9.988;2023-09-08T14:13:01;28.40;1.00
75994;DHT22;64680;53.800;9.988;2023-09-08T14:15:27;28.40;1.00
75994;DHT22;64680;53.800;9.988;2023-09-08T14:17:52;28.40;1.00
75994;DHT22;64680;53.800;9.988;2023-09-08T14:20:18;28.30;1.00
75994;DHT22;64680;53.800;9.988;2023-09-08T14:22:44;28.30;1.00
75994;DHT22;64680;53.800;9.988;2023-09-08T14:25:10;28.30;1.00
75994;DHT22;64680;53.800;9.988;2023-09-08T14:27:36;28.30;1.00
75994;DHT22;64680;53.800;9.988;2023-09-08T14:30:03;28.20;1.00
75994;DHT22;64680;53.800;9.988;2023-09-08T14:32:29;28.20;1.00
75994;DHT22;64680;53.800;9.988;2023-09-08T14:34:55;28.30;1.00
75994;DHT22;64680;53.800;9.988;2023-09-08T14:37:21;28.20;1.00
75994;DHT22;64680;53.800;9.988;2023-09-08T14:39:48;28.20;1.00
75994;DHT22;64680;53.800;9.988;2023-09-08T14:42:13;28.20;1.00
75994;DHT22;64680;53.800;9.988;2023-09-08T14:44:41;28.10;1.00
75994;DHT22;64680;53.800;9.988;2023-09-08T14:47:07;28.10;1.00
75994;DHT22;64680;53.800;9.988;2023-09-08T14:49:32;28.10;1.00
75994;DHT22;64680;53.800;9.988;2023-09-08T14:51:58;28.10;1.00
75994;DHT22;64680;53.800;9.988;2023-09-08T14:54:24;28.10;1.00
75994;DHT22;64680;53.800;9.988;2023-09-08T14:56:51;28.10;1.00
75994;DHT22;64680;53.800;9.988;2023-09-08T14:59:16;28.10;1.00
75994;DHT22;64680;53.800;9.988;2023-09-08T15:01:42;28.20;1.00
75994;DHT22;64680;53.800;9.988;2023-09-08T15:04:10;28.20;1.00
75994;DHT22;64680;53.800;9.988;2023-09-08T15:06:36;28.00;1.00
75994;DHT22;64680;53.800;9.988;2023-09-08T15:09:01;27.90;1.00
75994;DHT22;64680;53.800;9.988;2023-09-08T15:11:27;27.90;1.00
75994;DHT22;64680;53.800;9.988;2023-09-08T15:13:53;28.00;1.00
75994;DHT22;64680;53.800;9.988;2023-09-08T15:16:18;28.00;1.00
75994;DHT22;64680;53.800;9.988;2023-09-08T15:18:44;27.90;1.00
75994;DHT22;64680;53.800;9.988;2023-09-08T15:21:09;27.80;1.00
75994;DHT22;64680;53.800;9.988;2023-09-08T15:23:38;27.70;1.00
75994;DHT22;64680;53.800;9.988;2023-09-08T15:26:04;27.60;1.00
75994;DHT22;64680;53.800;9.988;2023-09-08T15:28:30;27.60;1.00
75994;DHT22;64680;53.800;9.988;2023-09-08T15:30:56;27.50;1.00
75994;DHT22;64680;53.800;9.988;2023-09-08T15:33:21;27.50;1.00
75994;DHT22;64680;53.800;9.988;2023-09-08T15:35:48;27.50;1.00
75994;DHT22;64680;53.800;9.988;2023-09-08T15:38:14;27.50;1.00
75994;DHT22;64680;53.800;9.988;2023-09-08T15:43:42;27.30;1.00
75994;DHT22;64680;53.800;9.988;2023-09-08T15:46:08;27.30;1.00
75994;DHT22;64680;53.800;9.988;2023-09-08T15:48:35;27.20;1.00